Time;durP1;ratioP1;P1;durP2;ratioP2;P2;SDS_P1;SDS_P2;PMS_P1;PMS_P2;Temp;Humidity;BMP_temperature;BMP_pressure;BME280_temperature;BME280_humidity;BME280_pressure;Samples;Min_cycle;Max_cycle;Signal;HPM_P1;HPM_P2
2023/02/26 00:01:00;;;;;;;5.20;2.37;;;;;;;3.69;63.41;99335.28;5033364;27;101104;-85
2023/02/26 00:03:25;;;;;;;7.23;2.43;;;;;;;3.61;63.83;99335.47;5042800;27;102008;-83
2023/02/26 00:05:51;;;;;;;3.80;2.20;;;;;;;3.65;63.76;99335.41;5056971;27;96762;-85
2023/02/26 00:08:16;;;;;;;5.40;2.80;;;;;;;3.58;63.58;99324.31;5032842;27;96900;-84
2023/02/26 00:10:42;;;;;;;4.63;2.50;;;;;;;3.65;63.58;99336.25;5042200;27;97861;-84
2023/02/26 00:13:09;;;;;;;5.83;2.20;;;;;;;3.68;63.17;99333.59;5033792;27;101804;-83
2023/02/26 00:15:35;;;;;;;5.80;2.10;;;;;;;3.70;63.49;99329.22;5068506;27;96787;-85
2023/02/26 00:18:06;;;;;;;4.57;2.23;;;;;;;3.58;63.38;99316.53;5023567;27;98308;-85
2023/02/26 00:20:32;;;;;;;6.37;2.60;;;;;;;3.65;63.57;99336.25;5039163;27;97685;-85
2023/02/26 00:22:58;;;;;;;3.83;2.00;;;;;;;3.70;62.94;99333.56;5024535;27;101500;-85
2023/02/26 00:25:23;;;;;;;3.73;2.13;;;;;;;3.52;63.58;99324.41;5033460;27;97269;-86
2023/02/26 00:27:49;;;;;;;5.13;2.40;;;;;;;3.69;63.41;99339.63;5049526;27;97109;-87
2023/02/26 00:30:15;;;;;;;4.50;2.17;;;;;;;3.69;63.07;99350.84;5000143;27;101976;-85
2023/02/26 00:32:41;;;;;;;4.77;2.20;;;;;;;3.64;62.77;99337.16;4988393;28;101588;-84
2023/02/26 00:35:10;;;;;;;3.70;1.73;;;;;;;3.59;63.07;99333.78;5010727;27;96678;-85
2023/02/26 00:37:56;;;;;;;5.43;1.67;;;;;;;3.64;62.98;99350.13;5013157;28;97699;-85
2023/02/26 00:40:28;;;;;;;4.77;1.83;;;;;;;3.66;62.68;99350.94;5010713;27;101261;-85
2023/02/26 00:42:54;;;;;;;3.72;2.20;;;;;;;3.69;62.75;99355.19;5012340;28;101622;-87
2023/02/26 00:45:19;;;;;;;3.73;1.70;;;;;;;3.72;63.17;99365.50;4994555;28;97722;-86
2023/02/26 00:47:50;;;;;;;4.83;2.10;;;;;;;3.69;62.67;99361.25;5013929;27;97494;-86
2023/02/26 00:50:20;;;;;;;3.87;1.93;;;;;;;3.67;62.95;99373.41;5015382;27;101782;-86
2023/02/26 00:52:49;;;;;;;5.00;1.87;;;;;;;3.65;62.80;99370.00;4997203;27;100937;-85
2023/02/26 00:55:17;;;;;;;3.93;2.10;;;;;;;3.70;62.97;99368.16;5007369;27;96801;-83
2023/02/26 00:57:42;;;;;;;3.83;1.80;;;;;;;3.62;62.23;99360.53;4995333;27;97019;-85
2023/02/26 01:00:09;;;;;;;5.87;1.77;;;;;;;3.73;62.51;99375.03;4995945;28;99495;-85
2023/02/26 01:02:37;;;;;;;3.03;1.60;;;;;;;3.61;62.52;99377.00;4998220;27;100618;-85
2023/02/26 01:05:03;;;;;;;2.83;1.40;;;;;;;3.63;62.62;99375.19;4988053;27;96743;-85
2023/02/26 01:07:34;;;;;;;2.73;1.83;;;;;;;3.54;62.46;99370.19;5006383;27;97157;-85
2023/02/26 01:10:00;;;;;;;2.20;1.30;;;;;;;3.58;62.48;99381.41;5019145;27;98217;-85
2023/02/26 01:12:26;;;;;;;4.63;2.00;;;;;;;3.55;62.78;99376.25;5021592;27;98082;-86
2023/02/26 01:14:52;;;;;;;3.30;1.70;;;;;;;3.58;62.71;99387.44;4984635;27;98808;-87
2023/02/26 01:17:31;;;;;;;2.97;2.10;;;;;;;3.54;62.55;99374.53;4982030;27;97164;-84
2023/02/26 01:20:09;;;;;;;3.03;1.90;;;;;;;3.62;62.27;99389.06;5005653;27;98325;-84
2023/02/26 01:22:39;;;;;;;3.33;1.70;;;;;;;3.54;62.69;99379.72;5011429;27;101554;-85
2023/02/26 01:25:12;;;;;;;2.90;1.50;;;;;;;3.57;62.48;99392.66;4984775;27;96997;-85
2023/02/26 01:27:38;;;;;;;4.20;1.47;;;;;;;3.59;62.53;99402.13;5006160;27;97135;-84
2023/02/26 01:30:05;;;;;;;3.53;1.80;;;;;;;3.54;63.32;99406.53;5010099;27;101974;-87
2023/02/26 01:32:43;;;;;;;4.90;1.97;;;;;;;3.51;63.26;99406.59;5002627;27;100914;-85
2023/02/26 01:35:22;;;;;;;3.70;1.77;;;;;;;3.52;63.39;99410.03;5049519;27;97055;-85
2023/02/26 01:38:03;;;;;;;3.77;1.70;;;;;;;3.55;63.76;99412.56;4998628;27;97907;-85
2023/02/26 01:40:58;;;;;;;5.32;2.13;;;;;;;3.54;63.57;99416.91;5008191;27;101316;-85
2023/02/26 01:43:38;;;;;;;2.63;1.63;;;;;;;3.55;63.50;99416.06;4984915;28;101967;-85
2023/02/26 02:04:29;;;;;;;4.80;2.20;;;;;;;3.56;64.36;99445.44;5145445;22;103305;-84
2023/02/26 02:06:55;;;;;;;4.10;1.87;;;;;;;3.43;64.44;99426.66;4978576;28;101724;-82
2023/02/26 02:09:21;;;;;;;5.03;2.20;;;;;;;3.55;64.36;99457.56;4993831;28;100625;-81
2023/02/26 02:12:08;;;;;;;6.20;2.50;;;;;;;3.56;64.45;99456.69;4993111;28;96887;-81
2023/02/26 02:14:42;;;;;;;6.57;2.77;;;;;;;3.57;64.42;99453.19;4990755;28;96749;-81
2023/02/26 02:17:23;;;;;;;5.00;2.60;;;;;;;3.53;64.35;99454.13;4993853;28;99855;-81
2023/02/26 02:20:22;;;;;;;4.20;1.90;;;;;;;3.57;64.29;99465.31;4994776;28;98075;-81
2023/02/26 02:23:07;;;;;;;3.77;2.00;;;;;;;3.52;64.30;99464.53;5002870;28;97391;-81
2023/02/26 02:25:54;;;;;;;3.63;1.80;;;;;;;3.62;64.21;99472.13;4997380;28;97904;-81
2023/02/26 02:28:45;;;;;;;4.33;2.10;;;;;;;3.56;64.29;99477.44;5024197;28;98359;-81
2023/02/26 02:31:16;;;;;;;4.63;2.07;;;;;;;3.46;64.30;99454.28;5004449;28;97842;-85
2023/02/26 02:34:03;;;;;;;6.88;2.55;;;;;;;3.60;64.02;99484.28;4993735;28;97478;-82
2023/02/26 02:36:42;;;;;;;5.40;2.50;;;;;;;3.58;63.99;99485.22;4993547;28;97456;-82
2023/02/26 02:39:31;;;;;;;3.73;2.10;;;;;;;3.52;64.06;99477.50;4991466;28;101515;-81
2023/02/26 02:42:02;;;;;;;5.43;2.17;;;;;;;3.55;64.04;99491.31;4989803;28;101079;-80
2023/02/26 02:44:29;;;;;;;4.37;2.10;;;;;;;3.53;63.72;99495.66;4976303;28;97210;-82
2023/02/26 02:46:57;;;;;;;4.50;1.97;;;;;;;3.54;63.99;99509.50;4972520;28;97341;-81
2023/02/26 02:49:30;;;;;;;5.50;2.00;;;;;;;3.48;64.08;99515.66;5008684;28;98603;-81
2023/02/26 02:52:01;;;;;;;3.47;1.97;;;;;;;3.50;64.25;99513.03;4990747;28;101348;-82
2023/02/26 02:54:33;;;;;;;5.57;2.00;;;;;;;3.53;64.18;99520.75;4975470;28;97084;-81
2023/02/26 02:57:09;;;;;;;3.43;1.90;;;;;;;3.55;63.86;99512.06;5027820;27;97287;-82
2023/02/26 02:59:44;;;;;;;4.57;2.10;;;;;;;3.57;64.04;99520.66;4969047;28;101328;-82
2023/02/26 03:02:15;;;;;;;3.10;1.90;;;;;;;3.47;64.04;99502.72;5007986;28;98347;-81
2023/02/26 03:04:41;;;;;;;4.13;2.33;;;;;;;3.57;64.27;99530.19;5009813;28;97082;-81
2023/02/26 03:07:07;;;;;;;4.40;1.90;;;;;;;3.45;63.75;99502.72;5004792;27;97032;-82
2023/02/26 03:09:33;;;;;;;4.20;2.23;;;;;;;3.55;63.84;99539.75;4990621;28;101689;-81
2023/02/26 03:11:58;;;;;;;4.00;1.97;;;;;;;3.42;64.00;99507.97;4994565;28;101033;-81
2023/02/26 03:14:25;;;;;;;2.60;1.67;;;;;;;3.48;63.63;99527.75;4988013;28;97304;-83
2023/02/26 03:16:52;;;;;;;2.57;1.60;;;;;;;3.49;63.83;99540.72;4983715;28;98202;-81
2023/02/26 03:19:43;;;;;;;4.50;1.50;;;;;;;3.49;63.20;99543.31;4991875;28;102782;-81
2023/02/26 03:22:34;;;;;;;3.88;1.80;;;;;;;3.36;63.18;99547.84;4973260;28;100991;-83
2023/02/26 03:25:16;;;;;;;3.60;1.23;;;;;;;3.28;62.81;99541.06;4987560;28;98191;-81
2023/02/26 03:27:56;;;;;;;2.17;1.40;;;;;;;3.40;62.92;99579.78;4977188;28;97374;-82
2023/02/26 03:30:36;;;;;;;1.87;1.27;;;;;;;3.40;62.51;99582.38;4993865;28;101480;-81
2023/02/26 03:33:42;;;;;;;2.67;1.40;;;;;;;3.42;62.33;99592.75;4997329;28;101746;-81
2023/02/26 03:36:12;;;;;;;2.27;1.43;;;;;;;3.40;62.52;99593.63;4933063;28;97164;-81
2023/02/26 03:38:52;;;;;;;;;;;;;;;3.40;63.05;99595.34;5012187;28;96951;-81
2023/02/26 03:41:26;;;;;;;3.13;1.40;;;;;;;3.43;62.64;99597.88;4996116;28;101626;-81
2023/02/26 03:44:02;;;;;;;4.60;1.40;;;;;;;3.26;62.45;99580.03;4997114;28;101789;-82
2023/02/26 03:46:36;;;;;;;3.40;1.53;;;;;;;3.32;62.63;99599.84;4977642;28;96984;-81
2023/02/26 03:49:11;;;;;;;1.57;1.03;;;;;;;3.42;62.82;99616.09;4991283;28;96819;-82
2023/02/26 03:51:39;;;;;;;3.73;1.80;;;;;;;3.39;62.33;99610.06;4975884;28;101955;-81
2023/02/26 03:54:29;;;;;;;2.40;1.30;;;;;;;3.32;62.28;99603.28;5011601;28;97232;-82
2023/02/26 03:57:13;;;;;;;2.27;1.70;;;;;;;3.40;62.07;99617.00;4978276;28;97232;-81
2023/02/26 03:59:57;;;;;;;4.23;1.90;;;;;;;3.37;62.10;99616.16;4999577;28;97298;-81
2023/02/26 04:02:57;;;;;;;3.58;1.80;;;;;;;3.35;62.20;99615.34;4997557;28;98192;-82
2023/02/26 04:05:26;;;;;;;4.93;1.90;;;;;;;3.45;62.40;99627.28;4978585;28;101015;-83
2023/02/26 04:07:52;;;;;;;3.80;1.80;;;;;;;3.43;62.42;99628.19;4993885;28;96789;-81
2023/02/26 04:10:23;;;;;;;3.60;1.13;;;;;;;3.39;61.96;99633.41;4996950;28;97753;-82
2023/02/26 04:12:49;;;;;;;2.80;1.40;;;;;;;3.14;61.60;99603.53;5013280;28;97936;-81
2023/02/26 04:15:15;;;;;;;3.80;1.50;;;;;;;3.39;62.00;99637.75;4989478;28;101483;-85
2023/02/26 04:17:41;;;;;;;2.73;1.40;;;;;;;3.25;61.80;99626.72;5001671;28;97396;-82
2023/02/26 04:20:11;;;;;;;3.83;1.37;;;;;;;3.30;62.02;99632.72;4994884;28;97653;-81
2023/02/26 04:22:37;;;;;;;3.63;1.40;;;;;;;3.21;62.18;99618.16;4994274;28;101629;-81
2023/02/26 04:25:03;;;;;;;2.63;1.37;;;;;;;3.39;61.72;99646.38;4978413;28;101253;-81
2023/02/26 04:27:29;;;;;;;3.00;1.50;;;;;;;3.39;61.93;99654.19;4989286;28;97177;-83
2023/02/26 04:29:55;;;;;;;2.80;1.30;;;;;;;3.18;61.64;99619.06;4994048;28;97196;-82
2023/02/26 04:32:20;;;;;;;1.77;1.30;;;;;;;3.17;62.03;99617.34;4977476;27;102182;-82
2023/02/26 04:34:46;;;;;;;1.60;1.30;;;;;;;3.37;61.97;99645.59;4995884;28;100733;-82
2023/02/26 04:37:15;;;;;;;4.80;1.40;;;;;;;3.32;61.79;99643.94;4992262;27;97137;-83
2023/02/26 04:39:41;;;;;;;3.33;1.50;;;;;;;3.34;61.46;99649.94;4996026;28;96801;-80
2023/02/26 04:42:08;;;;;;;2.53;1.30;;;;;;;3.36;61.55;99654.22;4979177;28;101080;-82
2023/02/26 04:44:34;;;;;;;3.53;1.63;;;;;;;3.36;61.48;99667.19;4974262;28;100746;-83
2023/02/26 04:47:01;;;;;;;3.40;1.50;;;;;;;3.33;61.52;99664.66;4978791;28;97269;-84
2023/02/26 04:49:27;;;;;;;3.07;1.50;;;;;;;3.18;61.35;99639.78;4994930;28;97198;-81
2023/02/26 04:51:52;;;;;;;2.43;1.30;;;;;;;3.26;61.47;99659.56;4995576;28;101134;-81
2023/02/26 04:54:18;;;;;;;2.63;1.80;;;;;;;3.29;61.29;99668.19;4976895;28;101916;-82
2023/02/26 04:56:44;;;;;;;2.33;1.47;;;;;;;3.30;61.56;99677.66;5012625;28;97291;-82
2023/02/26 04:59:09;;;;;;;2.70;1.27;;;;;;;3.29;61.11;99683.75;4992611;28;96892;-81
2023/02/26 05:01:35;;;;;;;3.53;1.30;;;;;;;3.01;61.33;99638.34;5002164;27;101717;-82
2023/02/26 05:04:03;;;;;;;2.07;1.43;;;;;;;3.17;60.69;99679.59;4984898;28;100892;-81
2023/02/26 05:06:29;;;;;;;3.37;1.10;;;;;;;3.16;61.05;99684.78;4996500;28;98370;-82
2023/02/26 05:08:55;;;;;;;1.73;1.10;;;;;;;3.27;60.88;99690.69;4972938;28;97517;-81
2023/02/26 05:11:20;;;;;;;2.03;1.20;;;;;;;3.18;60.80;99689.06;4991609;28;100857;-82
2023/02/26 05:13:46;;;;;;;1.67;1.23;;;;;;;3.13;60.89;99683.09;4975535;28;101229;-83
2023/02/26 05:16:12;;;;;;;2.63;1.17;;;;;;;3.20;61.01;99699.44;4992001;28;97017;-81
2023/02/26 05:18:38;;;;;;;2.43;1.23;;;;;;;3.17;61.03;99691.69;4972693;28;97217;-82
2023/02/26 05:21:04;;;;;;;2.27;1.63;;;;;;;3.20;60.62;99696.84;4972771;28;101123;-81
2023/02/26 05:23:30;;;;;;;2.67;1.20;;;;;;;3.11;60.54;99671.03;4975706;28;101307;-81
2023/02/26 05:25:57;;;;;;;2.90;1.20;;;;;;;3.32;60.51;99707.06;4992268;28;97025;-82
2023/02/26 05:28:24;;;;;;;1.67;1.17;;;;;;;3.18;60.58;99686.47;4972222;28;97274;-82
2023/02/26 05:30:49;;;;;;;2.87;1.40;;;;;;;3.31;60.52;99709.66;4966419;28;101438;-81
2023/02/26 05:33:15;;;;;;;2.80;1.37;;;;;;;3.30;60.39;99715.72;4975003;28;101283;-81
2023/02/26 05:35:40;;;;;;;1.97;1.20;;;;;;;3.29;60.42;99720.06;4991318;28;97358;-81
2023/02/26 05:38:06;;;;;;;1.60;1.03;;;;;;;3.18;60.14;99706.38;4978812;28;96927;-83
2023/02/26 05:40:32;;;;;;;2.17;1.10;;;;;;;3.25;60.01;99735.69;4984149;28;101407;-81
2023/02/26 05:42:57;;;;;;;1.63;1.23;;;;;;;3.22;60.30;99735.72;4971631;28;100528;-82
2023/02/26 05:45:23;;;;;;;1.87;1.20;;;;;;;3.16;60.24;99736.66;4971352;28;96908;-81
2023/02/26 05:47:48;;;;;;;2.60;1.30;;;;;;;3.20;60.73;99746.13;4990287;28;97152;-82
2023/02/26 05:50:14;;;;;;;2.60;1.30;;;;;;;3.23;60.41;99743.50;4974887;28;101517;-82
2023/02/26 05:52:39;;;;;;;2.03;1.20;;;;;;;3.29;60.50;99753.78;4971416;28;101625;-81
2023/02/26 05:55:06;;;;;;;3.67;1.60;;;;;;;3.26;60.79;99758.13;4980493;28;99898;-82
2023/02/26 05:57:31;;;;;;;2.80;1.10;;;;;;;3.27;60.73;99765.06;5003191;28;97297;-82
2023/02/26 05:59:57;;;;;;;2.83;1.37;;;;;;;3.22;60.40;99764.25;4971552;28;100948;-81
2023/02/26 06:02:22;;;;;;;4.50;1.20;;;;;;;3.21;60.69;99766.00;4990738;28;100895;-82
2023/02/26 06:04:48;;;;;;;2.90;1.47;;;;;;;3.16;60.21;99762.59;4988210;28;97220;-82
2023/02/26 06:07:13;;;;;;;4.87;1.97;;;;;;;3.26;60.58;99778.91;4957898;28;97279;-81
2023/02/26 06:09:39;;;;;;;3.83;1.60;;;;;;;3.26;60.44;99784.97;4977643;28;101558;-82
2023/02/26 06:12:05;;;;;;;4.00;1.50;;;;;;;3.22;60.41;99770.28;4974313;28;100962;-83
2023/02/26 06:14:31;;;;;;;2.30;1.30;;;;;;;3.32;60.49;99790.06;5011957;27;97094;-82
2023/02/26 06:16:57;;;;;;;3.00;2.10;;;;;;;3.30;60.25;99798.75;4978359;28;96841;-81
2023/02/26 06:19:23;;;;;;;2.00;1.00;;;;;;;3.21;60.34;99789.34;4971983;28;101921;-83
2023/02/26 06:21:48;;;;;;;2.87;0.97;;;;;;;3.12;60.24;99792.06;4974464;28;101453;-81
2023/02/26 06:24:14;;;;;;;2.70;1.30;;;;;;;3.18;60.71;99803.22;5008057;28;97089;-81
2023/02/26 06:26:39;;;;;;;4.13;1.47;;;;;;;3.27;60.74;99823.00;4988206;28;97423;-81
2023/02/26 06:29:05;;;;;;;2.73;1.20;;;;;;;3.11;60.68;99796.41;4990175;28;101305;-82
2023/02/26 06:31:30;;;;;;;4.50;1.33;;;;;;;3.27;60.73;99828.19;5001275;28;97683;-81
2023/02/26 06:33:56;;;;;;;1.70;1.10;;;;;;;3.28;60.71;99829.03;4990853;28;97126;-81
2023/02/26 06:36:22;;;;;;;3.07;1.20;;;;;;;3.18;60.82;99823.09;4983200;28;97494;-82
2023/02/26 06:38:47;;;;;;;2.20;1.33;;;;;;;3.28;60.97;99842.00;4980586;28;98509;-81
2023/02/26 06:41:13;;;;;;;3.73;1.83;;;;;;;3.24;61.58;99837.75;5005137;28;97911;-80
2023/02/26 06:43:38;;;;;;;2.03;1.30;;;;;;;3.32;61.06;99838.50;4982133;28;97271;-80
2023/02/26 06:46:04;;;;;;;1.87;1.17;;;;;;;3.37;60.54;99847.97;4970754;28;97409;-81
2023/02/26 06:48:30;;;;;;;2.93;1.40;;;;;;;3.39;60.77;99848.78;5000187;28;97773;-81
2023/02/26 06:50:56;;;;;;;4.43;1.90;;;;;;;3.29;60.68;99839.41;4980716;28;97292;-79
2023/02/26 06:53:21;;;;;;;1.90;1.03;;;;;;;3.38;60.87;99854.84;4990662;28;97035;-83
2023/02/26 06:55:49;;;;;;;4.40;1.50;;;;;;;3.31;60.61;99848.00;4980300;28;98072;-83
2023/02/26 06:58:15;;;;;;;4.33;1.50;;;;;;;3.28;60.53;99848.03;5010765;28;98146;-82
2023/02/26 07:00:40;;;;;;;2.80;1.40;;;;;;;3.36;59.92;99869.56;4993288;28;101380;-83
2023/02/26 07:03:08;;;;;;;4.87;2.00;;;;;;;3.36;60.28;99876.50;4991746;28;97539;-79
2023/02/26 07:05:33;;;;;;;4.73;1.70;;;;;;;3.31;59.73;99873.09;4974703;28;96954;-79
2023/02/26 07:07:59;;;;;;;4.33;1.30;;;;;;;3.29;60.23;99878.31;4976428;28;101514;-80
2023/02/26 07:10:25;;;;;;;3.30;1.93;;;;;;;3.36;60.01;99884.28;4989735;28;101676;-82
2023/02/26 07:12:50;;;;;;;3.47;1.27;;;;;;;3.35;59.69;99878.25;4993899;28;96781;-79
2023/02/26 07:15:16;;;;;;;1.83;1.20;;;;;;;3.30;59.69;99886.97;4993970;28;97738;-80
2023/02/26 07:17:42;;;;;;;3.23;1.20;;;;;;;3.33;59.65;99884.31;4976097;28;101508;-82
2023/02/26 07:20:09;;;;;;;2.50;1.40;;;;;;;3.30;60.10;99890.41;4990168;28;102016;-83
2023/02/26 07:22:37;;;;;;;3.40;1.73;;;;;;;3.27;59.84;99892.19;4986067;28;97374;-81
2023/02/26 07:25:04;;;;;;;4.73;1.40;;;;;;;3.43;59.69;99895.44;4994016;28;97067;-80
2023/02/26 07:27:32;;;;;;;1.53;1.20;;;;;;;3.42;59.71;99902.38;4998866;28;97927;-80
2023/02/26 07:29:58;;;;;;;1.70;1.20;;;;;;;3.50;59.43;99912.69;4991476;28;101103;-81
2023/02/26 07:32:24;;;;;;;3.67;1.47;;;;;;;3.37;59.42;99905.03;4992402;28;97308;-84
2023/02/26 07:34:50;;;;;;;2.37;1.30;;;;;;;3.46;59.20;99913.56;4986252;28;97524;-82
2023/02/26 07:37:15;;;;;;;3.20;1.27;;;;;;;3.40;59.27;99914.50;4973446;28;100626;-81
2023/02/26 07:39:41;;;;;;;3.67;1.43;;;;;;;3.43;59.48;99929.19;4975418;28;101171;-80
2023/02/26 07:42:08;;;;;;;2.53;1.33;;;;;;;3.49;59.80;99940.38;4990889;28;96745;-80
2023/02/26 07:44:34;;;;;;;2.37;1.50;;;;;;;3.47;59.38;99944.72;4984279;28;96777;-80
2023/02/26 07:46:59;;;;;;;2.20;1.30;;;;;;;3.45;59.60;99941.25;4988925;28;101387;-81
2023/02/26 07:49:25;;;;;;;2.07;1.30;;;;;;;3.24;59.51;99907.78;4971115;28;101659;-81
2023/02/26 07:51:50;;;;;;;2.17;1.17;;;;;;;3.40;59.84;99943.03;4992428;28;97237;-81
2023/02/26 07:54:16;;;;;;;2.23;1.50;;;;;;;3.39;59.45;99938.75;4976307;28;96937;-80
2023/02/26 07:56:42;;;;;;;4.10;1.70;;;;;;;3.50;59.59;99960.25;4986857;28;101554;-80
2023/02/26 07:59:08;;;;;;;3.33;1.60;;;;;;;3.52;59.85;99957.63;4990132;28;97500;-82
2023/02/26 08:01:34;;;;;;;3.87;1.90;;;;;;;3.50;59.57;99954.19;4960493;28;97107;-81
2023/02/26 08:04:00;;;;;;;3.93;1.80;;;;;;;3.55;59.54;99970.56;4983678;28;97019;-80
2023/02/26 08:06:27;;;;;;;3.37;2.00;;;;;;;3.58;59.62;99975.75;4974653;28;100596;-83
2023/02/26 08:08:53;;;;;;;2.70;1.70;;;;;;;3.47;60.12;99977.59;4971403;28;101463;-81
2023/02/26 08:11:18;;;;;;;4.10;2.13;;;;;;;3.51;59.67;99982.72;4976268;28;97180;-79
2023/02/26 08:13:44;;;;;;;2.90;1.83;;;;;;;3.51;59.70;99984.47;4973140;28;97355;-79
2023/02/26 08:16:09;;;;;;;3.00;1.40;;;;;;;3.46;59.95;99981.94;4978288;28;101085;-80
2023/02/26 08:18:35;;;;;;;3.20;1.50;;;;;;;3.46;59.87;99983.63;4970866;28;101866;-80
2023/02/26 08:21:00;;;;;;;3.40;1.50;;;;;;;3.46;59.79;99988.84;4985383;28;97160;-81
2023/02/26 08:23:26;;;;;;;2.77;1.23;;;;;;;3.37;59.43;99976.81;4969757;28;97258;-83
2023/02/26 08:26:03;;;;;;;4.17;1.83;;;;;;;3.46;59.40;99994.03;4967917;28;101145;-81
2023/02/26 08:28:29;;;;;;;4.53;1.80;;;;;;;3.36;59.35;99978.56;4971927;28;101009;-82
2023/02/26 08:30:55;;;;;;;3.90;1.87;;;;;;;3.53;59.20;99991.34;4974819;28;96771;-82
2023/02/26 08:33:20;;;;;;;4.07;2.00;;;;;;;3.48;59.25;99981.91;4970206;28;96984;-80
2023/02/26 08:35:47;;;;;;;4.27;1.80;;;;;;;3.57;59.77;100006.00;5000221;28;97979;-81
2023/02/26 08:38:12;;;;;;;4.90;1.97;;;;;;;3.66;59.36;100015.44;4977889;28;97652;-80
2023/02/26 08:40:38;;;;;;;2.73;1.70;;;;;;;3.70;59.10;100016.28;4987403;28;97341;-81
2023/02/26 08:43:03;;;;;;;3.13;1.40;;;;;;;3.66;58.83;100014.59;4972037;28;97234;-81
2023/02/26 08:45:29;;;;;;;3.03;1.50;;;;;;;3.60;58.97;100002.53;4976519;28;101346;-80
2023/02/26 08:47:55;;;;;;;2.60;1.40;;;;;;;3.78;58.67;100033.50;5002890;28;97548;-80
2023/02/26 08:50:21;;;;;;;2.23;1.13;;;;;;;3.62;58.65;100017.22;4975472;28;96944;-80
2023/02/26 08:52:46;;;;;;;2.20;1.50;;;;;;;3.71;nan;100039.63;4981225;28;97385;-80
2023/02/26 08:55:12;;;;;;;3.07;1.57;;;;;;;3.73;59.24;100040.47;4990639;28;101224;-79
2023/02/26 08:57:38;;;;;;;2.47;1.67;;;;;;;3.79;59.34;100042.16;4991257;28;101353;-80
2023/02/26 09:00:09;;;;;;;4.27;1.80;;;;;;;3.86;59.05;100047.25;4991604;28;97226;-81
2023/02/26 09:02:38;;;;;;;2.35;1.30;;;;;;;3.90;59.27;100052.41;4978820;28;96908;-81
2023/02/26 09:05:04;;;;;;;3.23;1.73;;;;;;;3.88;59.29;100056.78;4969539;28;100855;-81
2023/02/26 09:07:30;;;;;;;4.73;1.57;;;;;;;3.87;59.00;100055.91;4986751;28;101818;-81
2023/02/26 09:09:56;;;;;;;6.30;2.03;;;;;;;3.84;58.97;100062.00;4985044;28;97539;-82
2023/02/26 09:12:22;;;;;;;4.37;1.60;;;;;;;3.71;59.40;100042.22;4979353;28;96852;-83
2023/02/26 09:14:47;;;;;;;5.00;2.10;;;;;;;3.89;59.17;100081.84;4994626;28;98210;-80
2023/02/26 09:17:13;;;;;;;3.80;1.90;;;;;;;3.88;59.36;100080.13;4986203;28;100344;-82
2023/02/26 09:19:39;;;;;;;4.40;1.80;;;;;;;3.93;59.28;100080.97;4986582;28;97994;-82
2023/02/26 09:22:04;;;;;;;3.30;1.87;;;;;;;3.95;59.10;100093.03;4990613;28;97246;-81
2023/02/26 09:24:30;;;;;;;4.87;1.80;;;;;;;3.96;58.83;100104.31;4992649;28;101000;-81
2023/02/26 09:26:55;;;;;;;3.67;2.03;;;;;;;3.92;59.00;100106.03;4964470;28;101427;-79
2023/02/26 09:29:21;;;;;;;3.83;2.00;;;;;;;3.78;59.15;100092.34;4965825;28;97238;-80
2023/02/26 09:31:47;;;;;;;4.10;2.10;;;;;;;3.86;59.22;100113.91;4985488;28;97262;-79
2023/02/26 09:34:26;;;;;;;3.93;1.90;;;;;;;3.68;59.48;100078.59;4978703;28;98267;-81
2023/02/26 09:37:17;;;;;;;6.00;2.23;;;;;;;3.76;59.04;100089.78;4980786;28;98076;-79
2023/02/26 09:39:43;;;;;;;4.47;2.47;;;;;;;3.98;58.99;100110.31;4985323;28;98327;-80
2023/02/26 09:42:21;;;;;;;3.63;1.67;;;;;;;3.97;58.60;100124.19;4988777;28;96953;-80
2023/02/26 09:44:47;;;;;;;5.60;2.03;;;;;;;4.04;58.85;100123.22;4991714;28;101304;-79
2023/02/26 09:47:22;;;;;;;3.37;1.60;;;;;;;4.03;58.73;100127.56;4970878;28;100981;-83
2023/02/26 09:49:58;;;;;;;3.03;1.60;;;;;;;4.04;58.51;100133.63;4976093;28;98195;-80
2023/02/26 09:52:30;;;;;;;3.97;1.87;;;;;;;3.95;58.74;100116.41;4995780;28;98081;-81
2023/02/26 09:55:04;;;;;;;3.87;1.67;;;;;;;4.13;58.50;100135.25;4960396;28;102046;-79
2023/02/26 09:57:32;;;;;;;4.03;1.70;;;;;;;4.17;58.34;100143.03;4982300;28;101263;-81
2023/02/26 09:59:59;;;;;;;6.90;2.27;;;;;;;4.16;58.51;100143.03;4969387;28;97516;-80
2023/02/26 10:02:54;;;;;;;3.67;1.90;;;;;;;4.15;58.66;100146.50;5004025;28;97210;-80
2023/02/26 10:05:30;;;;;;;3.00;1.60;;;;;;;4.16;58.96;100148.22;4969816;28;101569;-79
2023/02/26 10:08:01;;;;;;;4.20;2.17;;;;;;;4.19;58.46;100158.59;4955655;28;101672;-79
2023/02/26 10:10:59;;;;;;;6.20;3.20;;;;;;;4.16;58.77;100167.28;4976722;28;96809;-79
2023/02/26 10:13:51;;;;;;;4.20;1.67;;;;;;;4.16;59.21;100164.69;4961022;28;97414;-79
2023/02/26 10:16:22;;;;;;;5.45;3.08;;;;;;;4.04;59.16;100151.81;4995533;28;97766;-78
2023/02/26 10:19:07;;;;;;;4.40;1.83;;;;;;;4.11;59.16;100163.88;4991961;28;98245;-79
2023/02/26 10:21:55;;;;;;;3.17;2.00;;;;;;;4.12;59.07;100169.94;4986110;28;97327;-80
2023/02/26 10:24:38;;;;;;;5.43;2.43;;;;;;;4.18;58.87;100175.91;4987544;28;96896;-79
2023/02/26 10:27:06;;;;;;;4.00;2.13;;;;;;;4.21;nan;100170.69;4984865;28;98280;-79
2023/02/26 10:29:36;;;;;;;4.77;2.17;;;;;;;4.30;59.07;100181.00;4978266;28;101015;-82
2023/02/26 10:32:39;;;;;;;6.37;2.90;;;;;;;4.34;58.45;100187.03;5002387;28;97681;-78
2023/02/26 10:35:16;;;;;;;4.65;2.58;;;;;;;4.22;58.33;100179.38;5003805;28;97950;-84
2023/02/26 10:38:05;;;;;;;4.50;2.17;;;;;;;4.29;58.37;100187.06;4972816;28;100524;-81
2023/02/26 10:40:33;;;;;;;5.10;2.30;;;;;;;4.27;58.60;100186.22;4985103;28;101613;-83
2023/02/26 10:43:07;;;;;;;4.50;2.23;;;;;;;4.26;58.37;100194.91;5005360;28;97194;-82
2023/02/26 10:45:56;;;;;;;4.20;2.33;;;;;;;4.17;57.80;100188.94;4970419;28;97943;-84
2023/02/26 10:48:38;;;;;;;5.13;1.97;;;;;;;4.28;58.77;100202.69;4985147;28;100212;-81
2023/02/26 10:51:12;;;;;;;4.53;2.50;;;;;;;4.40;57.97;100201.69;4986876;28;101148;-85
2023/02/26 10:53:38;;;;;;;6.67;1.90;;;;;;;4.58;57.79;100192.81;4988389;28;97696;-83
2023/02/26 10:56:15;;;;;;;5.47;2.30;;;;;;;4.76;58.15;100205.59;4973052;28;97576;-82
2023/02/26 10:58:40;;;;;;;4.87;2.20;;;;;;;4.96;58.01;100203.59;4988370;28;101630;-85
2023/02/26 11:01:16;;;;;;;2.73;1.73;;;;;;;5.05;56.49;100206.97;4987823;28;97296;-78
2023/02/26 11:03:44;;;;;;;3.40;1.60;;;;;;;4.97;56.62;100196.66;4976729;28;98152;-79
2023/02/26 11:06:14;;;;;;;7.73;2.40;;;;;;;4.93;56.35;100171.59;4980525;28;97403;-80
2023/02/26 11:08:42;;;;;;;4.07;2.33;;;;;;;5.22;55.60;100213.66;4951669;28;101668;-79
2023/02/26 11:11:09;;;;;;;5.00;2.27;;;;;;;5.23;55.63;100211.91;4969626;28;101167;-79
2023/02/26 11:13:37;;;;;;;4.63;2.03;;;;;;;5.22;55.62;100198.06;4958996;28;97431;-81
2023/02/26 11:16:11;;;;;;;5.40;2.80;;;;;;;5.38;55.42;100203.03;4945365;28;98063;-79
2023/02/26 11:18:44;;;;;;;4.30;2.20;;;;;;;5.34;55.08;100202.22;4963520;28;101798;-79
2023/02/26 11:21:18;;;;;;;4.07;2.10;;;;;;;5.32;55.04;100216.13;4983552;28;99016;-80
2023/02/26 11:23:44;;;;;;;5.63;2.10;;;;;;;5.13;55.01;100199.94;4978125;28;97414;-79
2023/02/26 11:26:16;;;;;;;6.37;2.00;;;;;;;5.33;55.42;100220.47;4973384;28;96975;-81
2023/02/26 11:28:48;;;;;;;7.18;2.60;;;;;;;5.54;54.76;100225.38;4964465;28;98395;-79
2023/02/26 11:31:17;;;;;;;4.97;1.70;;;;;;;5.51;54.43;100214.16;4954675;28;98632;-79
2023/02/26 11:33:45;;;;;;;4.07;1.63;;;;;;;5.44;54.43;100226.41;4967675;28;97457;-79
2023/02/26 11:36:14;;;;;;;4.27;1.83;;;;;;;5.28;54.17;100230.94;4951335;28;96938;-79
2023/02/26 11:38:45;;;;;;;3.73;1.53;;;;;;;5.14;55.24;100217.25;4974574;28;97565;-81
2023/02/26 11:41:10;;;;;;;4.30;1.90;;;;;;;5.13;54.98;100228.56;4983336;28;98878;-80
2023/02/26 11:43:42;;;;;;;4.37;2.00;;;;;;;5.30;55.21;100237.00;4980992;28;97397;-81
2023/02/26 11:46:09;;;;;;;3.37;1.80;;;;;;;5.33;55.50;100249.97;4984031;28;97579;-80
2023/02/26 11:48:43;;;;;;;3.67;2.40;;;;;;;5.14;55.40;100240.69;4948799;28;101504;-83
2023/02/26 11:51:13;;;;;;;6.47;2.77;;;;;;;5.12;56.30;100253.72;4952379;28;101584;-81
2023/02/26 11:54:01;;;;;;;4.77;2.37;;;;;;;5.03;55.86;100248.63;4945741;28;98148;-81
2023/02/26 11:56:39;;;;;;;5.30;2.33;;;;;;;4.94;56.10;100249.59;4968323;28;97165;-82
2023/02/26 11:59:26;;;;;;;6.40;2.97;;;;;;;4.94;56.46;100257.38;4969123;28;102363;-81
2023/02/26 12:01:52;;;;;;;3.67;2.20;;;;;;;4.93;56.27;100242.66;4982796;28;101428;-81
2023/02/26 12:04:21;;;;;;;5.57;2.40;;;;;;;4.90;56.03;100237.50;4970255;28;97173;-80
2023/02/26 12:06:49;;;;;;;4.07;2.20;;;;;;;5.07;55.15;100258.13;4987711;28;97187;-81
2023/02/26 12:09:15;;;;;;;4.50;1.80;;;;;;;5.08;55.09;100264.19;4971823;28;101382;-82